sensor_id;sensor_type;location;lat;lon;timestamp;pressure;altitude;pressure_sealevel;temperature;humidity
56142;BME280;42018;48.588;10.836;2022-12-29T00:01:06;96599.50;;;4.11;73.48
56142;BME280;42018;48.588;10.836;2022-12-29T00:03:52;96596.97;;;4.04;74.06
56142;BME280;42018;48.588;10.836;2022-12-29T00:06:37;96594.72;;;3.96;74.25
56142;BME280;42018;48.588;10.836;2022-12-29T00:09:22;96591.50;;;3.94;74.57
56142;BME280;42018;48.588;10.836;2022-12-29T00:12:08;96596.63;;;4.01;74.40
56142;BME280;42018;48.588;10.836;2022-12-29T00:14:53;96592.44;;;4.00;74.36
56142;BME280;42018;48.588;10.836;2022-12-29T00:17:57;96592.19;;;3.90;74.27
56142;BME280;42018;48.588;10.836;2022-12-29T00:20:42;96590.59;;;4.00;73.08
56142;BME280;42018;48.588;10.836;2022-12-29T00:23:46;96587.97;;;4.12;73.00
56142;BME280;42018;48.588;10.836;2022-12-29T00:27:11;96589.25;;;4.21;71.37
56142;BME280;42018;48.588;10.836;2022-12-29T00:30:23;96575.22;;;4.27;71.00
56142;BME280;42018;48.588;10.836;2022-12-29T00:33:31;96571.47;;;4.23;71.23
56142;BME280;42018;48.588;10.836;2022-12-29T00:36:39;96575.78;;;4.29;70.69
56142;BME280;42018;48.588;10.836;2022-12-29T00:39:25;96580.22;;;4.29;70.49
56142;BME280;42018;48.588;10.836;2022-12-29T00:42:29;96573.28;;;4.35;71.01
56142;BME280;42018;48.588;10.836;2022-12-29T00:45:34;96579.53;;;4.33;71.33
56142;BME280;42018;48.588;10.836;2022-12-29T00:48:19;96575.31;;;4.32;71.60
56142;BME280;42018;48.588;10.836;2022-12-29T00:51:24;96576.25;;;4.26;71.64
56142;BME280;42018;48.588;10.836;2022-12-29T00:54:10;96584.09;;;4.26;71.70
56142;BME280;42018;48.588;10.836;2022-12-29T00:56:55;96588.00;;;4.24;71.69
56142;BME280;42018;48.588;10.836;2022-12-29T00:59:41;96582.06;;;4.28;72.02
56142;BME280;42018;48.588;10.836;2022-12-29T01:02:28;96595.53;;;4.20;72.10
56142;BME280;42018;48.588;10.836;2022-12-29T01:05:13;96592.78;;;4.15;72.16
56142;BME280;42018;48.588;10.836;2022-12-29T01:07:58;96596.28;;;4.09;72.46
56142;BME280;42018;48.588;10.836;2022-12-29T01:10:44;96598.59;;;4.17;72.30
56142;BME280;42018;48.588;10.836;2022-12-29T01:13:29;96597.34;;;4.20;72.07
56142;BME280;42018;48.588;10.836;2022-12-29T01:16:15;96588.78;;;4.13;72.06
56142;BME280;42018;48.588;10.836;2022-12-29T01:19:00;96581.94;;;4.12;72.52
56142;BME280;42018;48.588;10.836;2022-12-29T01:21:46;96594.00;;;4.01;73.23
56142;BME280;42018;48.588;10.836;2022-12-29T01:24:32;96590.94;;;3.92;73.28
56142;BME280;42018;48.588;10.836;2022-12-29T01:27:17;96594.22;;;3.88;74.25
56142;BME280;42018;48.588;10.836;2022-12-29T01:30:03;96589.91;;;3.81;74.38
56142;BME280;42018;48.588;10.836;2022-12-29T01:32:49;96591.28;;;3.96;73.73
56142;BME280;42018;48.588;10.836;2022-12-29T01:35:34;96597.78;;;4.05;73.24
56142;BME280;42018;48.588;10.836;2022-12-29T01:38:19;96594.59;;;4.03;73.05
56142;BME280;42018;48.588;10.836;2022-12-29T01:41:06;96595.84;;;4.00;73.64
56142;BME280;42018;48.588;10.836;2022-12-29T01:43:59;96589.00;;;4.11;73.14
56142;BME280;42018;48.588;10.836;2022-12-29T01:46:48;96582.19;;;4.22;72.57
56142;BME280;42018;48.588;10.836;2022-12-29T01:49:34;96587.06;;;4.30;72.44
56142;BME280;42018;48.588;10.836;2022-12-29T01:52:20;96588.34;;;4.27;72.81
56142;BME280;42018;48.588;10.836;2022-12-29T01:55:06;96578.19;;;4.07;73.44
56142;BME280;42018;48.588;10.836;2022-12-29T01:57:52;96575.44;;;3.91;73.98
56142;BME280;42018;48.588;10.836;2022-12-29T02:00:40;96575.91;;;4.11;73.76
56142;BME280;42018;48.588;10.836;2022-12-29T02:03:27;96569.97;;;4.04;74.50
56142;BME280;42018;48.588;10.836;2022-12-29T02:09:05;96570.56;;;4.18;74.31
56142;BME280;42018;48.588;10.836;2022-12-29T02:11:51;96566.78;;;4.25;74.03
56142;BME280;42018;48.588;10.836;2022-12-29T02:14:37;96560.97;;;4.23;73.65
56142;BME280;42018;48.588;10.836;2022-12-29T02:20:37;96564.50;;;4.29;73.96
56142;BME280;42018;48.588;10.836;2022-12-29T02:26:47;96562.78;;;4.35;73.42
56142;BME280;42018;48.588;10.836;2022-12-29T02:48:12;96536.81;;;4.21;73.83
56142;BME280;42018;48.588;10.836;2022-12-29T02:51:02;96537.84;;;4.20;73.58
56142;BME280;42018;48.588;10.836;2022-12-29T02:53:48;96535.09;;;4.15;74.54
56142;BME280;42018;48.588;10.836;2022-12-29T02:56:52;96530.63;;;4.16;73.90
56142;BME280;42018;48.588;10.836;2022-12-29T02:59:39;96527.44;;;4.25;74.14
56142;BME280;42018;48.588;10.836;2022-12-29T03:09:03;96516.41;;;4.23;74.17
56142;BME280;42018;48.588;10.836;2022-12-29T03:11:58;96515.03;;;4.09;75.02
56142;BME280;42018;48.588;10.836;2022-12-29T03:15:09;96509.31;;;4.12;74.63
56142;BME280;42018;48.588;10.836;2022-12-29T03:18:21;96507.72;;;4.23;74.35
56142;BME280;42018;48.588;10.836;2022-12-29T03:24:04;96491.78;;;4.24;74.10
56142;BME280;42018;48.588;10.836;2022-12-29T03:26:53;96492.91;;;4.28;74.06
56142;BME280;42018;48.588;10.836;2022-12-29T03:29:44;96491.31;;;4.27;74.62
56142;BME280;42018;48.588;10.836;2022-12-29T03:32:45;96491.19;;;4.34;73.66
56142;BME280;42018;48.588;10.836;2022-12-29T03:35:33;96493.56;;;4.36;74.25
56142;BME280;42018;48.588;10.836;2022-12-29T03:38:28;96492.44;;;4.31;74.45
56142;BME280;42018;48.588;10.836;2022-12-29T03:41:20;96496.97;;;4.36;74.15
56142;BME280;42018;48.588;10.836;2022-12-29T03:44:09;96494.31;;;4.48;74.09
56142;BME280;42018;48.588;10.836;2022-12-29T03:46:55;96497.53;;;4.50;74.22
56142;BME280;42018;48.588;10.836;2022-12-29T03:49:40;96494.06;;;4.61;72.92
56142;BME280;42018;48.588;10.836;2022-12-29T03:52:26;96498.78;;;4.59;73.02
56142;BME280;42018;48.588;10.836;2022-12-29T03:55:11;96490.59;;;4.72;71.84
56142;BME280;42018;48.588;10.836;2022-12-29T03:57:57;96492.31;;;4.78;72.29
56142;BME280;42018;48.588;10.836;2022-12-29T04:00:42;96488.97;;;4.83;71.03
56142;BME280;42018;48.588;10.836;2022-12-29T04:03:27;96480.50;;;4.93;70.73
56142;BME280;42018;48.588;10.836;2022-12-29T04:06:13;96486.25;;;5.07;69.01
56142;BME280;42018;48.588;10.836;2022-12-29T04:08:58;96484.34;;;5.19;68.23
56142;BME280;42018;48.588;10.836;2022-12-29T04:11:44;96496.53;;;5.25;68.97
56142;BME280;42018;48.588;10.836;2022-12-29T04:14:29;96502.44;;;5.32;69.58
56142;BME280;42018;48.588;10.836;2022-12-29T04:17:15;96501.66;;;5.32;69.57
56142;BME280;42018;48.588;10.836;2022-12-29T04:20:00;96502.22;;;5.34;69.64
56142;BME280;42018;48.588;10.836;2022-12-29T04:23:05;96499.91;;;5.37;70.04
56142;BME280;42018;48.588;10.836;2022-12-29T04:25:51;96504.34;;;5.37;69.47
56142;BME280;42018;48.588;10.836;2022-12-29T04:28:36;96501.16;;;5.35;69.55
56142;BME280;42018;48.588;10.836;2022-12-29T04:31:22;96500.44;;;5.39;69.63
56142;BME280;42018;48.588;10.836;2022-12-29T04:34:07;96490.66;;;5.35;69.74
56142;BME280;42018;48.588;10.836;2022-12-29T04:36:52;96497.03;;;5.39;68.80
56142;BME280;42018;48.588;10.836;2022-12-29T04:39:38;96493.22;;;5.46;68.76
56142;BME280;42018;48.588;10.836;2022-12-29T04:42:23;96490.28;;;5.60;66.98
56142;BME280;42018;48.588;10.836;2022-12-29T04:45:09;96487.06;;;5.74;64.97
56142;BME280;42018;48.588;10.836;2022-12-29T04:47:54;96477.81;;;5.89;64.18
56142;BME280;42018;48.588;10.836;2022-12-29T04:50:40;96478.63;;;6.06;63.84
56142;BME280;42018;48.588;10.836;2022-12-29T04:53:26;96478.97;;;6.15;63.84
56142;BME280;42018;48.588;10.836;2022-12-29T04:56:11;96472.28;;;6.24;63.31
56142;BME280;42018;48.588;10.836;2022-12-29T04:58:57;96470.13;;;6.43;61.87
56142;BME280;42018;48.588;10.836;2022-12-29T05:01:42;96469.03;;;6.61;61.67
56142;BME280;42018;48.588;10.836;2022-12-29T05:04:27;96467.00;;;6.68;61.03
56142;BME280;42018;48.588;10.836;2022-12-29T05:07:13;96469.50;;;6.80;60.58
56142;BME280;42018;48.588;10.836;2022-12-29T05:09:59;96470.03;;;6.82;60.02
56142;BME280;42018;48.588;10.836;2022-12-29T05:12:45;96464.97;;;7.02;59.32
56142;BME280;42018;48.588;10.836;2022-12-29T05:15:30;96464.00;;;7.08;59.07
56142;BME280;42018;48.588;10.836;2022-12-29T05:18:16;96463.63;;;7.00;59.53
56142;BME280;42018;48.588;10.836;2022-12-29T05:21:01;96466.09;;;7.11;59.31
56142;BME280;42018;48.588;10.836;2022-12-29T05:23:47;96470.25;;;7.02;59.03
56142;BME280;42018;48.588;10.836;2022-12-29T05:26:32;96466.16;;;7.16;58.77
56142;BME280;42018;48.588;10.836;2022-12-29T05:29:17;96466.09;;;7.11;58.24
56142;BME280;42018;48.588;10.836;2022-12-29T05:32:03;96470.88;;;7.14;57.46
56142;BME280;42018;48.588;10.836;2022-12-29T05:34:48;96456.38;;;7.12;59.20
56142;BME280;42018;48.588;10.836;2022-12-29T05:37:34;96463.84;;;7.20;57.82
56142;BME280;42018;48.588;10.836;2022-12-29T05:40:20;96461.28;;;7.03;58.70
56142;BME280;42018;48.588;10.836;2022-12-29T05:43:05;96467.41;;;7.09;58.89
56142;BME280;42018;48.588;10.836;2022-12-29T05:45:51;96464.97;;;7.02;59.47
56142;BME280;42018;48.588;10.836;2022-12-29T05:48:37;96476.06;;;7.04;58.95
56142;BME280;42018;48.588;10.836;2022-12-29T05:51:22;96477.06;;;6.98;58.29
56142;BME280;42018;48.588;10.836;2022-12-29T05:54:08;96489.94;;;6.94;58.98
56142;BME280;42018;48.588;10.836;2022-12-29T05:56:53;96488.44;;;7.04;58.55
56142;BME280;42018;48.588;10.836;2022-12-29T05:59:39;96501.06;;;7.02;58.74
56142;BME280;42018;48.588;10.836;2022-12-29T06:02:24;96500.66;;;6.88;59.36
56142;BME280;42018;48.588;10.836;2022-12-29T06:05:09;96505.25;;;6.98;58.09
56142;BME280;42018;48.588;10.836;2022-12-29T06:07:55;96500.69;;;6.93;58.47
56142;BME280;42018;48.588;10.836;2022-12-29T06:10:40;96503.41;;;6.98;58.48
56142;BME280;42018;48.588;10.836;2022-12-29T06:13:26;96503.22;;;7.05;58.50
56142;BME280;42018;48.588;10.836;2022-12-29T06:16:12;96506.38;;;6.80;58.90
56142;BME280;42018;48.588;10.836;2022-12-29T06:18:57;96506.22;;;6.91;59.04
56142;BME280;42018;48.588;10.836;2022-12-29T06:21:43;96508.59;;;6.66;58.91
56142;BME280;42018;48.588;10.836;2022-12-29T06:24:28;96507.88;;;6.76;59.56
56142;BME280;42018;48.588;10.836;2022-12-29T06:27:14;96504.16;;;6.71;59.69
56142;BME280;42018;48.588;10.836;2022-12-29T06:29:59;96501.09;;;6.80;59.33
56142;BME280;42018;48.588;10.836;2022-12-29T06:32:45;96499.06;;;6.87;58.91
56142;BME280;42018;48.588;10.836;2022-12-29T06:35:31;96497.75;;;6.89;58.99
56142;BME280;42018;48.588;10.836;2022-12-29T06:38:16;96504.75;;;6.79;59.62
56142;BME280;42018;48.588;10.836;2022-12-29T06:41:01;96507.66;;;6.77;59.90
56142;BME280;42018;48.588;10.836;2022-12-29T06:43:47;96508.94;;;6.75;59.90
56142;BME280;42018;48.588;10.836;2022-12-29T06:46:32;96513.16;;;6.76;60.24
56142;BME280;42018;48.588;10.836;2022-12-29T06:49:17;96510.75;;;6.96;59.98
56142;BME280;42018;48.588;10.836;2022-12-29T06:52:03;96516.88;;;7.02;59.69
56142;BME280;42018;48.588;10.836;2022-12-29T06:54:49;96506.56;;;7.00;60.13
56142;BME280;42018;48.588;10.836;2022-12-29T06:57:35;96506.06;;;7.03;60.74
56142;BME280;42018;48.588;10.836;2022-12-29T07:00:20;96513.16;;;6.98;60.47
56142;BME280;42018;48.588;10.836;2022-12-29T07:03:05;96512.25;;;7.14;61.09
56142;BME280;42018;48.588;10.836;2022-12-29T07:05:51;96522.59;;;7.20;60.89
56142;BME280;42018;48.588;10.836;2022-12-29T07:08:36;96518.56;;;7.13;61.37
56142;BME280;42018;48.588;10.836;2022-12-29T07:11:22;96510.38;;;7.09;61.58
56142;BME280;42018;48.588;10.836;2022-12-29T07:14:07;96514.53;;;7.05;61.90
56142;BME280;42018;48.588;10.836;2022-12-29T07:16:53;96507.16;;;7.07;61.97
56142;BME280;42018;48.588;10.836;2022-12-29T07:19:38;96505.63;;;7.11;62.35
56142;BME280;42018;48.588;10.836;2022-12-29T07:22:24;96512.31;;;7.19;62.57
56142;BME280;42018;48.588;10.836;2022-12-29T07:25:09;96506.06;;;7.03;62.97
56142;BME280;42018;48.588;10.836;2022-12-29T07:27:54;96501.84;;;7.02;62.56
56142;BME280;42018;48.588;10.836;2022-12-29T07:30:40;96504.94;;;6.94;63.68
56142;BME280;42018;48.588;10.836;2022-12-29T07:33:25;96495.44;;;7.20;62.78
56142;BME280;42018;48.588;10.836;2022-12-29T07:36:11;96496.56;;;7.29;63.00
56142;BME280;42018;48.588;10.836;2022-12-29T07:38:57;96507.72;;;7.36;63.18
56142;BME280;42018;48.588;10.836;2022-12-29T07:41:42;96498.91;;;7.26;63.21
56142;BME280;42018;48.588;10.836;2022-12-29T07:44:27;96496.34;;;7.31;63.28
56142;BME280;42018;48.588;10.836;2022-12-29T07:47:13;96496.84;;;7.28;63.38
56142;BME280;42018;48.588;10.836;2022-12-29T07:49:58;96494.84;;;7.40;63.58
56142;BME280;42018;48.588;10.836;2022-12-29T07:52:43;96488.31;;;7.48;63.25
56142;BME280;42018;48.588;10.836;2022-12-29T07:55:29;96501.31;;;7.59;63.36
56142;BME280;42018;48.588;10.836;2022-12-29T07:58:15;96494.50;;;7.63;63.47
56142;BME280;42018;48.588;10.836;2022-12-29T08:01:00;96487.50;;;7.79;62.81
56142;BME280;42018;48.588;10.836;2022-12-29T08:04:14;96487.75;;;7.78;63.17
56142;BME280;42018;48.588;10.836;2022-12-29T08:07:30;96511.28;;;7.89;63.37
56142;BME280;42018;48.588;10.836;2022-12-29T08:10:16;96523.66;;;7.84;63.22
56142;BME280;42018;48.588;10.836;2022-12-29T08:13:01;96525.34;;;8.00;62.71
56142;BME280;42018;48.588;10.836;2022-12-29T08:15:47;96531.72;;;8.04;62.68
56142;BME280;42018;48.588;10.836;2022-12-29T08:18:32;96520.19;;;8.21;61.54
56142;BME280;42018;48.588;10.836;2022-12-29T08:21:17;96528.09;;;8.15;61.29
56142;BME280;42018;48.588;10.836;2022-12-29T08:24:03;96524.53;;;8.37;60.94
56142;BME280;42018;48.588;10.836;2022-12-29T08:26:48;96526.13;;;8.38;60.51
56142;BME280;42018;48.588;10.836;2022-12-29T08:29:34;96525.91;;;8.45;60.80
56142;BME280;42018;48.588;10.836;2022-12-29T08:32:19;96532.22;;;8.38;61.75
56142;BME280;42018;48.588;10.836;2022-12-29T08:35:05;96525.63;;;8.41;61.36
56142;BME280;42018;48.588;10.836;2022-12-29T08:37:50;96529.41;;;8.55;61.11
56142;BME280;42018;48.588;10.836;2022-12-29T08:40:36;96520.97;;;8.58;60.84
56142;BME280;42018;48.588;10.836;2022-12-29T08:43:21;96529.41;;;8.60;60.81
56142;BME280;42018;48.588;10.836;2022-12-29T08:46:07;96526.31;;;8.74;60.82
56142;BME280;42018;48.588;10.836;2022-12-29T08:48:53;96530.00;;;8.78;60.44
56142;BME280;42018;48.588;10.836;2022-12-29T08:51:38;96530.53;;;8.75;60.32
56142;BME280;42018;48.588;10.836;2022-12-29T08:54:24;96536.38;;;8.82;59.87
56142;BME280;42018;48.588;10.836;2022-12-29T08:57:10;96536.13;;;8.88;60.06
56142;BME280;42018;48.588;10.836;2022-12-29T08:59:55;96523.19;;;8.87;59.56
56142;BME280;42018;48.588;10.836;2022-12-29T09:02:41;96533.75;;;8.92;59.88
56142;BME280;42018;48.588;10.836;2022-12-29T09:05:26;96533.81;;;9.02;59.39
56142;BME280;42018;48.588;10.836;2022-12-29T09:08:12;96526.94;;;9.06;59.80
56142;BME280;42018;48.588;10.836;2022-12-29T09:11:09;96534.88;;;9.06;60.10
56142;BME280;42018;48.588;10.836;2022-12-29T09:13:54;96539.38;;;9.11;59.92
56142;BME280;42018;48.588;10.836;2022-12-29T09:16:40;96524.59;;;9.15;58.97
56142;BME280;42018;48.588;10.836;2022-12-29T09:19:44;96532.78;;;9.14;59.16
56142;BME280;42018;48.588;10.836;2022-12-29T09:22:29;96540.69;;;9.14;59.78
56142;BME280;42018;48.588;10.836;2022-12-29T09:25:14;96543.38;;;9.19;59.84
56142;BME280;42018;48.588;10.836;2022-12-29T09:28:00;96552.56;;;9.06;59.52
56142;BME280;42018;48.588;10.836;2022-12-29T09:30:50;96535.69;;;9.17;59.40
56142;BME280;42018;48.588;10.836;2022-12-29T09:33:35;96541.53;;;9.29;59.84
56142;BME280;42018;48.588;10.836;2022-12-29T09:36:21;96540.22;;;9.22;59.61
56142;BME280;42018;48.588;10.836;2022-12-29T09:39:07;96535.97;;;9.21;59.06
56142;BME280;42018;48.588;10.836;2022-12-29T09:42:12;96529.63;;;9.32;59.68
56142;BME280;42018;48.588;10.836;2022-12-29T09:45:16;96530.16;;;9.39;59.18
56142;BME280;42018;48.588;10.836;2022-12-29T09:48:05;96534.19;;;9.62;58.89
56142;BME280;42018;48.588;10.836;2022-12-29T09:50:57;96532.84;;;9.70;58.65
56142;BME280;42018;48.588;10.836;2022-12-29T09:57:21;96527.03;;;9.68;59.19
56142;BME280;42018;48.588;10.836;2022-12-29T10:00:13;96520.97;;;9.82;59.37
56142;BME280;42018;48.588;10.836;2022-12-29T10:03:04;96530.75;;;9.82;59.31
56142;BME280;42018;48.588;10.836;2022-12-29T10:08:59;96519.56;;;10.21;59.55
56142;BME280;42018;48.588;10.836;2022-12-29T10:15:31;96513.75;;;10.39;58.62
56142;BME280;42018;48.588;10.836;2022-12-29T10:18:49;96508.13;;;10.61;58.92
56142;BME280;42018;48.588;10.836;2022-12-29T10:24:46;96510.53;;;10.42;58.01
56142;BME280;42018;48.588;10.836;2022-12-29T10:27:33;96499.94;;;10.47;57.84
56142;BME280;42018;48.588;10.836;2022-12-29T10:30:19;96494.88;;;10.56;57.45
56142;BME280;42018;48.588;10.836;2022-12-29T10:33:07;96485.34;;;10.60;57.71
56142;BME280;42018;48.588;10.836;2022-12-29T10:35:57;96499.63;;;10.59;57.77
56142;BME280;42018;48.588;10.836;2022-12-29T10:39:02;96499.09;;;10.62;57.05
56142;BME280;42018;48.588;10.836;2022-12-29T10:41:54;96497.94;;;10.84;57.24
56142;BME280;42018;48.588;10.836;2022-12-29T10:44:42;96499.16;;;11.07;55.56
56142;BME280;42018;48.588;10.836;2022-12-29T10:47:32;96488.91;;;11.34;56.08
56142;BME280;42018;48.588;10.836;2022-12-29T10:50:19;96494.72;;;11.36;55.10
56142;BME280;42018;48.588;10.836;2022-12-29T10:53:05;96482.63;;;11.20;55.51
56142;BME280;42018;48.588;10.836;2022-12-29T10:55:51;96501.81;;;11.07;55.39
56142;BME280;42018;48.588;10.836;2022-12-29T10:58:36;96486.34;;;11.19;55.51
56142;BME280;42018;48.588;10.836;2022-12-29T11:01:27;96485.16;;;11.40;55.00
56142;BME280;42018;48.588;10.836;2022-12-29T11:07:11;96480.34;;;11.77;54.23
56142;BME280;42018;48.588;10.836;2022-12-29T11:13:17;96464.91;;;12.13;53.08
56142;BME280;42018;48.588;10.836;2022-12-29T11:16:02;96457.91;;;12.22;53.92
56142;BME280;42018;48.588;10.836;2022-12-29T11:18:48;96450.84;;;12.12;52.06
56142;BME280;42018;48.588;10.836;2022-12-29T11:21:36;96457.69;;;12.18;53.76
56142;BME280;42018;48.588;10.836;2022-12-29T11:24:28;96463.16;;;12.27;52.70
56142;BME280;42018;48.588;10.836;2022-12-29T11:27:17;96456.34;;;12.21;51.84
56142;BME280;42018;48.588;10.836;2022-12-29T11:30:22;96449.94;;;12.22;53.06
56142;BME280;42018;48.588;10.836;2022-12-29T11:33:09;96456.59;;;12.43;53.02
56142;BME280;42018;48.588;10.836;2022-12-29T11:35:58;96456.03;;;12.22;53.04
56142;BME280;42018;48.588;10.836;2022-12-29T11:38:53;96456.91;;;12.18;53.06
56142;BME280;42018;48.588;10.836;2022-12-29T11:41:40;96467.75;;;12.21;53.22
56142;BME280;42018;48.588;10.836;2022-12-29T11:44:26;96466.50;;;12.14;52.16
56142;BME280;42018;48.588;10.836;2022-12-29T11:47:29;96462.59;;;12.06;52.62
56142;BME280;42018;48.588;10.836;2022-12-29T11:50:29;96456.47;;;12.06;53.49
56142;BME280;42018;48.588;10.836;2022-12-29T11:53:22;96458.66;;;11.98;53.23
56142;BME280;42018;48.588;10.836;2022-12-29T11:56:15;96453.19;;;11.90;53.69
56142;BME280;42018;48.588;10.836;2022-12-29T12:02:39;96462.25;;;11.84;53.74
56142;BME280;42018;48.588;10.836;2022-12-29T12:05:44;96464.72;;;11.75;53.73
56142;BME280;42018;48.588;10.836;2022-12-29T12:11:30;96466.91;;;11.68;53.98
56142;BME280;42018;48.588;10.836;2022-12-29T12:14:32;96456.31;;;11.63;54.62
56142;BME280;42018;48.588;10.836;2022-12-29T12:17:35;96464.03;;;11.59;55.15
56142;BME280;42018;48.588;10.836;2022-12-29T12:26:30;96466.44;;;11.61;56.10
56142;BME280;42018;48.588;10.836;2022-12-29T12:32:54;96456.59;;;11.61;55.08
56142;BME280;42018;48.588;10.836;2022-12-29T12:38:55;96454.81;;;11.86;55.53
56142;BME280;42018;48.588;10.836;2022-12-29T12:45:21;96445.13;;;11.37;56.06
56142;BME280;42018;48.588;10.836;2022-12-29T12:48:54;96442.34;;;11.52;56.08
56142;BME280;42018;48.588;10.836;2022-12-29T13:01:00;96428.91;;;11.38;56.68
56142;BME280;42018;48.588;10.836;2022-12-29T13:19:30;96443.72;;;11.44;57.80
56142;BME280;42018;48.588;10.836;2022-12-29T13:37:26;96428.06;;;11.14;58.64
56142;BME280;42018;48.588;10.836;2022-12-29T13:40:15;96432.84;;;11.12;58.06
56142;BME280;42018;48.588;10.836;2022-12-29T13:43:02;96442.66;;;11.11;58.47
56142;BME280;42018;48.588;10.836;2022-12-29T13:45:58;96440.03;;;11.06;57.41
56142;BME280;42018;48.588;10.836;2022-12-29T13:48:51;96446.63;;;11.14;56.99
56142;BME280;42018;48.588;10.836;2022-12-29T13:51:38;96441.13;;;11.39;57.17
56142;BME280;42018;48.588;10.836;2022-12-29T14:00:38;96440.19;;;11.20;56.88
56142;BME280;42018;48.588;10.836;2022-12-29T14:03:47;96440.84;;;11.07;57.43
56142;BME280;42018;48.588;10.836;2022-12-29T14:06:35;96444.28;;;11.07;57.59
56142;BME280;42018;48.588;10.836;2022-12-29T14:09:40;96442.69;;;11.06;57.79
56142;BME280;42018;48.588;10.836;2022-12-29T14:12:39;96448.03;;;11.01;57.85
56142;BME280;42018;48.588;10.836;2022-12-29T14:15:25;96454.66;;;11.03;57.67
56142;BME280;42018;48.588;10.836;2022-12-29T14:18:17;96450.88;;;11.10;57.92
56142;BME280;42018;48.588;10.836;2022-12-29T14:23:52;96452.72;;;11.14;58.48
56142;BME280;42018;48.588;10.836;2022-12-29T14:26:39;96447.13;;;11.16;58.53
56142;BME280;42018;48.588;10.836;2022-12-29T14:35:39;96469.06;;;10.82;58.47
56142;BME280;42018;48.588;10.836;2022-12-29T14:38:27;96464.78;;;10.91;58.50
56142;BME280;42018;48.588;10.836;2022-12-29T14:41:24;96458.94;;;10.94;58.86
56142;BME280;42018;48.588;10.836;2022-12-29T14:44:17;96454.66;;;10.98;59.46
56142;BME280;42018;48.588;10.836;2022-12-29T14:47:07;96444.06;;;10.98;58.87
56142;BME280;42018;48.588;10.836;2022-12-29T14:49:53;96439.28;;;11.00;58.85
56142;BME280;42018;48.588;10.836;2022-12-29T14:55:41;96440.84;;;11.07;58.54
56142;BME280;42018;48.588;10.836;2022-12-29T14:58:30;96444.47;;;11.16;59.18
56142;BME280;42018;48.588;10.836;2022-12-29T15:01:38;96442.53;;;10.87;59.31
56142;BME280;42018;48.588;10.836;2022-12-29T15:04:30;96446.19;;;10.96;59.82
56142;BME280;42018;48.588;10.836;2022-12-29T15:07:17;96442.75;;;10.96;59.64
56142;BME280;42018;48.588;10.836;2022-12-29T15:10:07;96442.25;;;10.94;59.97
56142;BME280;42018;48.588;10.836;2022-12-29T15:13:14;96446.75;;;10.88;59.88
56142;BME280;42018;48.588;10.836;2022-12-29T15:16:00;96448.38;;;10.84;60.08
56142;BME280;42018;48.588;10.836;2022-12-29T15:18:45;96462.13;;;10.91;60.28
56142;BME280;42018;48.588;10.836;2022-12-29T15:21:33;96461.13;;;10.82;60.32
56142;BME280;42018;48.588;10.836;2022-12-29T15:24:19;96450.63;;;10.62;60.91
56142;BME280;42018;48.588;10.836;2022-12-29T15:27:05;96452.44;;;10.66;60.62
56142;BME280;42018;48.588;10.836;2022-12-29T15:30:02;96449.00;;;10.71;61.07
56142;BME280;42018;48.588;10.836;2022-12-29T15:32:49;96450.56;;;10.72;60.97
56142;BME280;42018;48.588;10.836;2022-12-29T15:35:36;96454.88;;;10.58;61.34
56142;BME280;42018;48.588;10.836;2022-12-29T15:41:29;96449.41;;;10.34;61.62
56142;BME280;42018;48.588;10.836;2022-12-29T15:44:23;96446.00;;;10.18;62.36
56142;BME280;42018;48.588;10.836;2022-12-29T15:47:18;96446.50;;;10.20;62.11
56142;BME280;42018;48.588;10.836;2022-12-29T15:52:54;96455.00;;;10.06;62.44
56142;BME280;42018;48.588;10.836;2022-12-29T15:55:41;96458.97;;;10.14;62.29
56142;BME280;42018;48.588;10.836;2022-12-29T15:58:30;96464.00;;;10.16;62.20
56142;BME280;42018;48.588;10.836;2022-12-29T16:01:20;96464.56;;;10.07;62.30
56142;BME280;42018;48.588;10.836;2022-12-29T16:04:09;96466.94;;;10.04;62.65
56142;BME280;42018;48.588;10.836;2022-12-29T16:09:42;96465.38;;;9.93;63.19
56142;BME280;42018;48.588;10.836;2022-12-29T16:12:34;96459.78;;;10.04;62.95
56142;BME280;42018;48.588;10.836;2022-12-29T16:15:20;96459.00;;;10.04;63.11
56142;BME280;42018;48.588;10.836;2022-12-29T16:18:20;96466.19;;;9.83;63.40
56142;BME280;42018;48.588;10.836;2022-12-29T16:21:18;96477.56;;;9.83;63.17
56142;BME280;42018;48.588;10.836;2022-12-29T16:24:34;96465.66;;;9.66;63.77
56142;BME280;42018;48.588;10.836;2022-12-29T16:27:32;96465.13;;;9.58;64.36
56142;BME280;42018;48.588;10.836;2022-12-29T16:33:53;96461.41;;;9.39;65.12
56142;BME280;42018;48.588;10.836;2022-12-29T16:36:52;96464.34;;;9.48;65.00
56142;BME280;42018;48.588;10.836;2022-12-29T16:39:39;96473.84;;;9.39;65.38
56142;BME280;42018;48.588;10.836;2022-12-29T16:48:35;96487.09;;;9.49;65.46
56142;BME280;42018;48.588;10.836;2022-12-29T16:51:28;96483.66;;;9.43;65.41
56142;BME280;42018;48.588;10.836;2022-12-29T16:54:35;96474.09;;;9.11;66.29
56142;BME280;42018;48.588;10.836;2022-12-29T16:57:28;96478.31;;;9.13;66.14
56142;BME280;42018;48.588;10.836;2022-12-29T17:00:21;96485.19;;;9.08;66.51
56142;BME280;42018;48.588;10.836;2022-12-29T17:03:09;96497.38;;;9.25;66.38
56142;BME280;42018;48.588;10.836;2022-12-29T17:05:56;96488.66;;;9.24;66.43
56142;BME280;42018;48.588;10.836;2022-12-29T17:08:43;96487.97;;;8.66;67.93
56142;BME280;42018;48.588;10.836;2022-12-29T17:11:32;96493.09;;;9.03;66.97
56142;BME280;42018;48.588;10.836;2022-12-29T17:14:40;96494.19;;;9.13;66.86
56142;BME280;42018;48.588;10.836;2022-12-29T17:17:41;96499.75;;;9.21;66.49
56142;BME280;42018;48.588;10.836;2022-12-29T17:20:28;96504.75;;;9.07;66.70
56142;BME280;42018;48.588;10.836;2022-12-29T17:23:15;96496.88;;;9.33;66.62
56142;BME280;42018;48.588;10.836;2022-12-29T17:26:01;96487.34;;;9.27;66.35
56142;BME280;42018;48.588;10.836;2022-12-29T17:29:06;96494.22;;;9.23;66.16
56142;BME280;42018;48.588;10.836;2022-12-29T17:31:51;96486.28;;;9.28;66.34